sensor_id;sensor_type;location;lat;lon;timestamp;temperature;humidity
13164;DHT22;6647;53.688;10.746;2023-05-10T00:00:32;14.20;99.90
13164;DHT22;6647;53.688;10.746;2023-05-10T00:01:53;14.20;99.90
13164;DHT22;6647;53.688;10.746;2023-05-10T00:03:15;14.20;99.90
13164;DHT22;6647;53.688;10.746;2023-05-10T00:04:35;14.20;99.90
13164;DHT22;6647;53.688;10.746;2023-05-10T00:05:56;14.20;99.90
13164;DHT22;6647;53.688;10.746;2023-05-10T00:07:17;14.20;99.90
13164;DHT22;6647;53.688;10.746;2023-05-10T00:08:38;14.10;99.90
13164;DHT22;6647;53.688;10.746;2023-05-10T00:09:59;14.20;99.90
13164;DHT22;6647;53.688;10.746;2023-05-10T00:11:20;14.20;99.90
13164;DHT22;6647;53.688;10.746;2023-05-10T00:12:41;14.10;99.90
13164;DHT22;6647;53.688;10.746;2023-05-10T00:14:02;14.10;99.90
13164;DHT22;6647;53.688;10.746;2023-05-10T00:15:23;14.10;99.90
13164;DHT22;6647;53.688;10.746;2023-05-10T00:16:44;14.10;99.90
13164;DHT22;6647;53.688;10.746;2023-05-10T00:18:05;14.10;99.90
13164;DHT22;6647;53.688;10.746;2023-05-10T00:19:26;14.10;99.90
13164;DHT22;6647;53.688;10.746;2023-05-10T00:20:47;14.10;99.90
13164;DHT22;6647;53.688;10.746;2023-05-10T00:22:09;14.10;99.90
13164;DHT22;6647;53.688;10.746;2023-05-10T00:23:31;14.10;99.90
13164;DHT22;6647;53.688;10.746;2023-05-10T00:24:51;14.00;99.90
13164;DHT22;6647;53.688;10.746;2023-05-10T00:26:12;14.00;99.90
13164;DHT22;6647;53.688;10.746;2023-05-10T00:27:33;14.00;99.90
13164;DHT22;6647;53.688;10.746;2023-05-10T00:28:54;14.00;99.90
13164;DHT22;6647;53.688;10.746;2023-05-10T00:30:15;14.00;99.90
13164;DHT22;6647;53.688;10.746;2023-05-10T00:31:36;14.00;99.90
13164;DHT22;6647;53.688;10.746;2023-05-10T00:32:57;13.90;99.90
13164;DHT22;6647;53.688;10.746;2023-05-10T00:34:18;13.90;99.90
13164;DHT22;6647;53.688;10.746;2023-05-10T00:35:39;13.90;99.90
13164;DHT22;6647;53.688;10.746;2023-05-10T00:36:59;13.90;99.90
13164;DHT22;6647;53.688;10.746;2023-05-10T00:38:20;13.90;99.90
13164;DHT22;6647;53.688;10.746;2023-05-10T00:39:41;13.90;99.90
13164;DHT22;6647;53.688;10.746;2023-05-10T00:41:02;13.90;99.90
13164;DHT22;6647;53.688;10.746;2023-05-10T00:42:24;13.90;99.90
13164;DHT22;6647;53.688;10.746;2023-05-10T00:43:45;13.90;99.90
13164;DHT22;6647;53.688;10.746;2023-05-10T00:45:06;13.80;99.90
13164;DHT22;6647;53.688;10.746;2023-05-10T00:46:27;13.80;99.90
13164;DHT22;6647;53.688;10.746;2023-05-10T00:47:49;13.80;99.90
13164;DHT22;6647;53.688;10.746;2023-05-10T00:49:10;13.80;99.90
13164;DHT22;6647;53.688;10.746;2023-05-10T00:50:32;13.80;99.90
13164;DHT22;6647;53.688;10.746;2023-05-10T00:51:54;13.80;99.90
13164;DHT22;6647;53.688;10.746;2023-05-10T00:53:15;13.80;99.90
13164;DHT22;6647;53.688;10.746;2023-05-10T00:54:36;13.80;99.90
13164;DHT22;6647;53.688;10.746;2023-05-10T00:55:57;13.80;99.90
13164;DHT22;6647;53.688;10.746;2023-05-10T00:57:18;13.80;99.90
13164;DHT22;6647;53.688;10.746;2023-05-10T00:58:40;13.80;99.90
13164;DHT22;6647;53.688;10.746;2023-05-10T01:00:03;13.80;99.90
13164;DHT22;6647;53.688;10.746;2023-05-10T01:01:24;13.70;99.90
13164;DHT22;6647;53.688;10.746;2023-05-10T01:02:46;13.70;99.90
13164;DHT22;6647;53.688;10.746;2023-05-10T01:04:06;13.60;99.90
13164;DHT22;6647;53.688;10.746;2023-05-10T01:05:27;13.60;99.90
13164;DHT22;6647;53.688;10.746;2023-05-10T01:06:48;13.60;99.90
13164;DHT22;6647;53.688;10.746;2023-05-10T01:08:09;13.60;99.90
13164;DHT22;6647;53.688;10.746;2023-05-10T01:09:30;13.50;99.90
13164;DHT22;6647;53.688;10.746;2023-05-10T01:10:52;13.50;99.90
13164;DHT22;6647;53.688;10.746;2023-05-10T01:12:14;13.60;99.90
13164;DHT22;6647;53.688;10.746;2023-05-10T01:13:40;13.50;99.90
13164;DHT22;6647;53.688;10.746;2023-05-10T01:15:04;13.50;99.90
13164;DHT22;6647;53.688;10.746;2023-05-10T01:16:26;13.50;99.90
13164;DHT22;6647;53.688;10.746;2023-05-10T01:17:48;13.50;99.90
13164;DHT22;6647;53.688;10.746;2023-05-10T01:19:28;13.50;99.90
13164;DHT22;6647;53.688;10.746;2023-05-10T01:22:38;13.50;99.90
13164;DHT22;6647;53.688;10.746;2023-05-10T01:31:50;13.40;99.90
13164;DHT22;6647;53.688;10.746;2023-05-10T01:34:41;13.40;99.90
13164;DHT22;6647;53.688;10.746;2023-05-10T01:41:47;13.40;99.90
13164;DHT22;6647;53.688;10.746;2023-05-10T01:43:50;13.40;99.90
13164;DHT22;6647;53.688;10.746;2023-05-10T01:45:46;13.40;99.90
13164;DHT22;6647;53.688;10.746;2023-05-10T01:47:11;13.30;99.90
13164;DHT22;6647;53.688;10.746;2023-05-10T01:48:33;13.30;99.90
13164;DHT22;6647;53.688;10.746;2023-05-10T01:49:55;13.30;99.90
13164;DHT22;6647;53.688;10.746;2023-05-10T01:51:21;13.30;99.90
13164;DHT22;6647;53.688;10.746;2023-05-10T01:52:47;13.30;99.90
13164;DHT22;6647;53.688;10.746;2023-05-10T01:54:11;13.30;99.90
13164;DHT22;6647;53.688;10.746;2023-05-10T01:55:38;13.30;99.90
13164;DHT22;6647;53.688;10.746;2023-05-10T01:57:05;13.20;99.90
13164;DHT22;6647;53.688;10.746;2023-05-10T01:58:29;13.20;99.90
13164;DHT22;6647;53.688;10.746;2023-05-10T01:59:51;13.20;99.90
13164;DHT22;6647;53.688;10.746;2023-05-10T02:01:13;13.20;99.90
13164;DHT22;6647;53.688;10.746;2023-05-10T02:02:37;13.20;99.90
13164;DHT22;6647;53.688;10.746;2023-05-10T02:03:59;13.20;99.90
13164;DHT22;6647;53.688;10.746;2023-05-10T02:05:22;13.20;99.90
13164;DHT22;6647;53.688;10.746;2023-05-10T02:06:45;13.20;99.90
13164;DHT22;6647;53.688;10.746;2023-05-10T02:08:07;13.20;99.90
13164;DHT22;6647;53.688;10.746;2023-05-10T02:09:30;13.20;99.90
13164;DHT22;6647;53.688;10.746;2023-05-10T02:10:54;13.20;99.90
13164;DHT22;6647;53.688;10.746;2023-05-10T02:12:16;13.20;99.90
13164;DHT22;6647;53.688;10.746;2023-05-10T02:13:38;13.20;99.90
13164;DHT22;6647;53.688;10.746;2023-05-10T02:15:02;13.20;99.90
13164;DHT22;6647;53.688;10.746;2023-05-10T02:16:26;13.20;99.90
13164;DHT22;6647;53.688;10.746;2023-05-10T02:17:47;13.10;99.90
13164;DHT22;6647;53.688;10.746;2023-05-10T02:19:09;13.10;99.90
13164;DHT22;6647;53.688;10.746;2023-05-10T02:20:31;13.10;99.90
13164;DHT22;6647;53.688;10.746;2023-05-10T02:21:52;13.10;99.90
13164;DHT22;6647;53.688;10.746;2023-05-10T02:23:16;13.10;99.90
13164;DHT22;6647;53.688;10.746;2023-05-10T02:24:38;13.10;99.90
13164;DHT22;6647;53.688;10.746;2023-05-10T02:26:01;13.10;99.90
13164;DHT22;6647;53.688;10.746;2023-05-10T02:27:23;13.10;99.90
13164;DHT22;6647;53.688;10.746;2023-05-10T02:28:45;13.10;99.90
13164;DHT22;6647;53.688;10.746;2023-05-10T02:30:06;13.10;99.90
13164;DHT22;6647;53.688;10.746;2023-05-10T02:31:28;13.10;99.90
13164;DHT22;6647;53.688;10.746;2023-05-10T02:32:50;13.10;99.90
13164;DHT22;6647;53.688;10.746;2023-05-10T02:34:12;13.10;99.90
13164;DHT22;6647;53.688;10.746;2023-05-10T02:35:34;13.00;99.90
13164;DHT22;6647;53.688;10.746;2023-05-10T02:36:57;13.00;99.90
13164;DHT22;6647;53.688;10.746;2023-05-10T02:38:20;13.00;99.90
13164;DHT22;6647;53.688;10.746;2023-05-10T02:39:44;13.00;99.90
13164;DHT22;6647;53.688;10.746;2023-05-10T02:41:08;12.90;99.90
13164;DHT22;6647;53.688;10.746;2023-05-10T02:42:31;12.90;99.90
13164;DHT22;6647;53.688;10.746;2023-05-10T02:43:56;12.90;99.90
13164;DHT22;6647;53.688;10.746;2023-05-10T02:45:20;12.90;99.90
13164;DHT22;6647;53.688;10.746;2023-05-10T02:46:42;12.90;99.90
13164;DHT22;6647;53.688;10.746;2023-05-10T02:48:04;12.90;99.90
13164;DHT22;6647;53.688;10.746;2023-05-10T02:49:25;12.90;99.90
13164;DHT22;6647;53.688;10.746;2023-05-10T02:50:47;12.90;99.90
13164;DHT22;6647;53.688;10.746;2023-05-10T02:52:19;12.80;99.90
13164;DHT22;6647;53.688;10.746;2023-05-10T02:53:44;12.90;99.90
13164;DHT22;6647;53.688;10.746;2023-05-10T02:55:09;12.80;99.90
13164;DHT22;6647;53.688;10.746;2023-05-10T02:56:34;12.80;99.90
13164;DHT22;6647;53.688;10.746;2023-05-10T02:57:59;12.80;99.90
13164;DHT22;6647;53.688;10.746;2023-05-10T02:59:20;12.80;99.90
13164;DHT22;6647;53.688;10.746;2023-05-10T03:00:41;12.80;99.90
13164;DHT22;6647;53.688;10.746;2023-05-10T03:02:02;12.80;99.90
13164;DHT22;6647;53.688;10.746;2023-05-10T03:03:23;12.80;99.90
13164;DHT22;6647;53.688;10.746;2023-05-10T03:04:44;12.80;99.90
13164;DHT22;6647;53.688;10.746;2023-05-10T03:06:05;12.80;99.90
13164;DHT22;6647;53.688;10.746;2023-05-10T03:07:26;12.80;99.90
13164;DHT22;6647;53.688;10.746;2023-05-10T03:08:47;12.80;99.90
13164;DHT22;6647;53.688;10.746;2023-05-10T03:10:09;12.80;99.90
13164;DHT22;6647;53.688;10.746;2023-05-10T03:13:40;12.70;99.90
13164;DHT22;6647;53.688;10.746;2023-05-10T03:16:29;12.70;99.90
13164;DHT22;6647;53.688;10.746;2023-05-10T03:18:04;12.70;99.90
13164;DHT22;6647;53.688;10.746;2023-05-10T03:19:35;12.70;99.90
13164;DHT22;6647;53.688;10.746;2023-05-10T03:21:03;12.60;99.90
13164;DHT22;6647;53.688;10.746;2023-05-10T03:22:31;12.60;99.90
13164;DHT22;6647;53.688;10.746;2023-05-10T03:23:59;12.60;99.90
13164;DHT22;6647;53.688;10.746;2023-05-10T03:25:24;12.60;99.90
13164;DHT22;6647;53.688;10.746;2023-05-10T03:26:45;12.60;99.90
13164;DHT22;6647;53.688;10.746;2023-05-10T03:28:07;12.60;99.90
13164;DHT22;6647;53.688;10.746;2023-05-10T03:29:29;12.60;99.90
13164;DHT22;6647;53.688;10.746;2023-05-10T03:30:52;12.60;99.90
13164;DHT22;6647;53.688;10.746;2023-05-10T03:32:14;12.60;99.90
13164;DHT22;6647;53.688;10.746;2023-05-10T03:33:35;12.60;99.90
13164;DHT22;6647;53.688;10.746;2023-05-10T03:34:56;12.60;99.90
13164;DHT22;6647;53.688;10.746;2023-05-10T03:36:17;12.60;99.90
13164;DHT22;6647;53.688;10.746;2023-05-10T03:37:39;12.60;99.90
13164;DHT22;6647;53.688;10.746;2023-05-10T03:38:59;12.50;99.90
13164;DHT22;6647;53.688;10.746;2023-05-10T03:40:20;12.50;99.90
13164;DHT22;6647;53.688;10.746;2023-05-10T03:41:41;12.50;99.90
13164;DHT22;6647;53.688;10.746;2023-05-10T03:43:02;12.50;99.90
13164;DHT22;6647;53.688;10.746;2023-05-10T03:44:23;12.50;99.90
13164;DHT22;6647;53.688;10.746;2023-05-10T03:45:44;12.50;99.90
13164;DHT22;6647;53.688;10.746;2023-05-10T03:47:05;12.50;99.90
13164;DHT22;6647;53.688;10.746;2023-05-10T03:48:26;12.50;99.90
13164;DHT22;6647;53.688;10.746;2023-05-10T03:49:47;12.40;99.90
13164;DHT22;6647;53.688;10.746;2023-05-10T03:51:07;12.40;99.90
13164;DHT22;6647;53.688;10.746;2023-05-10T03:52:29;12.40;99.90
13164;DHT22;6647;53.688;10.746;2023-05-10T03:53:49;12.50;99.90
13164;DHT22;6647;53.688;10.746;2023-05-10T03:55:10;12.40;99.90
13164;DHT22;6647;53.688;10.746;2023-05-10T03:56:31;12.40;99.90
13164;DHT22;6647;53.688;10.746;2023-05-10T03:57:53;12.40;99.90
13164;DHT22;6647;53.688;10.746;2023-05-10T03:59:14;12.40;99.90
13164;DHT22;6647;53.688;10.746;2023-05-10T04:00:35;12.40;99.90
13164;DHT22;6647;53.688;10.746;2023-05-10T04:01:56;12.40;99.90
13164;DHT22;6647;53.688;10.746;2023-05-10T04:03:17;12.40;99.90
13164;DHT22;6647;53.688;10.746;2023-05-10T04:04:38;12.40;99.90
13164;DHT22;6647;53.688;10.746;2023-05-10T04:06:02;12.40;99.90
13164;DHT22;6647;53.688;10.746;2023-05-10T04:07:23;12.40;99.90
13164;DHT22;6647;53.688;10.746;2023-05-10T04:08:44;12.40;99.90
13164;DHT22;6647;53.688;10.746;2023-05-10T04:10:06;12.40;99.90
13164;DHT22;6647;53.688;10.746;2023-05-10T04:11:27;12.40;99.90
13164;DHT22;6647;53.688;10.746;2023-05-10T04:12:48;12.40;99.90
13164;DHT22;6647;53.688;10.746;2023-05-10T04:14:09;12.40;99.90
13164;DHT22;6647;53.688;10.746;2023-05-10T04:15:30;12.40;99.90
13164;DHT22;6647;53.688;10.746;2023-05-10T04:16:51;12.40;99.90
13164;DHT22;6647;53.688;10.746;2023-05-10T04:18:11;12.40;99.90
13164;DHT22;6647;53.688;10.746;2023-05-10T04:19:33;12.40;99.90
13164;DHT22;6647;53.688;10.746;2023-05-10T04:20:54;12.30;99.90
13164;DHT22;6647;53.688;10.746;2023-05-10T04:22:15;12.40;99.90
13164;DHT22;6647;53.688;10.746;2023-05-10T04:23:36;12.30;99.90
13164;DHT22;6647;53.688;10.746;2023-05-10T04:24:57;12.30;99.90
13164;DHT22;6647;53.688;10.746;2023-05-10T04:26:18;12.30;99.90
13164;DHT22;6647;53.688;10.746;2023-05-10T04:27:39;12.30;99.90
13164;DHT22;6647;53.688;10.746;2023-05-10T04:29:00;12.30;99.90
13164;DHT22;6647;53.688;10.746;2023-05-10T04:30:21;12.30;99.90
13164;DHT22;6647;53.688;10.746;2023-05-10T04:31:42;12.40;99.90
13164;DHT22;6647;53.688;10.746;2023-05-10T04:33:03;12.40;99.90
13164;DHT22;6647;53.688;10.746;2023-05-10T04:34:24;12.40;99.90
13164;DHT22;6647;53.688;10.746;2023-05-10T04:35:45;12.40;99.90
13164;DHT22;6647;53.688;10.746;2023-05-10T04:37:05;12.40;99.90
13164;DHT22;6647;53.688;10.746;2023-05-10T04:38:28;12.40;99.90
13164;DHT22;6647;53.688;10.746;2023-05-10T04:39:49;12.40;99.90
13164;DHT22;6647;53.688;10.746;2023-05-10T04:41:10;12.40;99.90
13164;DHT22;6647;53.688;10.746;2023-05-10T04:42:32;12.40;99.90
13164;DHT22;6647;53.688;10.746;2023-05-10T04:43:53;12.40;99.90
13164;DHT22;6647;53.688;10.746;2023-05-10T04:45:13;12.40;99.90
13164;DHT22;6647;53.688;10.746;2023-05-10T04:46:37;12.40;99.90
13164;DHT22;6647;53.688;10.746;2023-05-10T04:47:58;12.40;99.90
13164;DHT22;6647;53.688;10.746;2023-05-10T04:49:19;12.40;99.90
13164;DHT22;6647;53.688;10.746;2023-05-10T04:50:40;12.40;99.90
13164;DHT22;6647;53.688;10.746;2023-05-10T04:52:01;12.50;99.90
13164;DHT22;6647;53.688;10.746;2023-05-10T04:53:22;12.50;99.90
13164;DHT22;6647;53.688;10.746;2023-05-10T04:54:43;12.50;99.90
13164;DHT22;6647;53.688;10.746;2023-05-10T04:56:04;12.60;99.90
13164;DHT22;6647;53.688;10.746;2023-05-10T04:57:25;12.60;99.90
13164;DHT22;6647;53.688;10.746;2023-05-10T04:58:46;12.60;99.90
13164;DHT22;6647;53.688;10.746;2023-05-10T05:00:07;12.60;99.90
13164;DHT22;6647;53.688;10.746;2023-05-10T05:01:28;12.60;99.90
13164;DHT22;6647;53.688;10.746;2023-05-10T05:02:49;12.60;99.90
13164;DHT22;6647;53.688;10.746;2023-05-10T05:04:10;12.60;99.90
13164;DHT22;6647;53.688;10.746;2023-05-10T05:05:32;12.70;99.90
13164;DHT22;6647;53.688;10.746;2023-05-10T05:06:52;12.70;99.90
13164;DHT22;6647;53.688;10.746;2023-05-10T05:08:13;12.70;99.90
13164;DHT22;6647;53.688;10.746;2023-05-10T05:09:34;12.70;99.90
13164;DHT22;6647;53.688;10.746;2023-05-10T05:10:55;12.70;99.90
13164;DHT22;6647;53.688;10.746;2023-05-10T05:12:16;12.70;99.90
13164;DHT22;6647;53.688;10.746;2023-05-10T05:13:37;12.80;99.90
13164;DHT22;6647;53.688;10.746;2023-05-10T05:14:58;12.80;99.90
13164;DHT22;6647;53.688;10.746;2023-05-10T05:16:19;12.80;99.90
13164;DHT22;6647;53.688;10.746;2023-05-10T05:17:39;12.80;99.90
13164;DHT22;6647;53.688;10.746;2023-05-10T05:19:00;12.80;99.90
13164;DHT22;6647;53.688;10.746;2023-05-10T05:20:22;12.80;99.90
13164;DHT22;6647;53.688;10.746;2023-05-10T05:21:43;12.80;99.90
13164;DHT22;6647;53.688;10.746;2023-05-10T05:23:04;12.80;99.90
13164;DHT22;6647;53.688;10.746;2023-05-10T05:24:25;12.80;99.90
13164;DHT22;6647;53.688;10.746;2023-05-10T05:25:46;12.80;99.90
13164;DHT22;6647;53.688;10.746;2023-05-10T05:27:07;12.80;99.90
13164;DHT22;6647;53.688;10.746;2023-05-10T05:28:28;12.80;99.90
13164;DHT22;6647;53.688;10.746;2023-05-10T05:29:54;12.90;99.90
13164;DHT22;6647;53.688;10.746;2023-05-10T05:31:15;12.90;99.90
13164;DHT22;6647;53.688;10.746;2023-05-10T05:32:36;12.90;99.90
13164;DHT22;6647;53.688;10.746;2023-05-10T05:33:57;12.90;99.90
13164;DHT22;6647;53.688;10.746;2023-05-10T05:35:17;12.90;99.90
13164;DHT22;6647;53.688;10.746;2023-05-10T05:36:38;12.90;99.90
13164;DHT22;6647;53.688;10.746;2023-05-10T05:37:59;13.00;99.90
13164;DHT22;6647;53.688;10.746;2023-05-10T05:39:20;13.00;99.90
13164;DHT22;6647;53.688;10.746;2023-05-10T05:40:41;12.90;99.90
13164;DHT22;6647;53.688;10.746;2023-05-10T05:42:02;13.00;99.90
13164;DHT22;6647;53.688;10.746;2023-05-10T05:43:23;13.00;99.90
13164;DHT22;6647;53.688;10.746;2023-05-10T05:44:44;13.00;99.90
13164;DHT22;6647;53.688;10.746;2023-05-10T05:46:05;13.00;99.90
13164;DHT22;6647;53.688;10.746;2023-05-10T05:47:26;13.00;99.90
13164;DHT22;6647;53.688;10.746;2023-05-10T05:48:47;13.00;99.90
13164;DHT22;6647;53.688;10.746;2023-05-10T05:50:08;13.10;99.90
13164;DHT22;6647;53.688;10.746;2023-05-10T05:51:29;13.00;99.90
13164;DHT22;6647;53.688;10.746;2023-05-10T05:52:51;13.10;99.90
13164;DHT22;6647;53.688;10.746;2023-05-10T05:54:12;13.10;99.90
13164;DHT22;6647;53.688;10.746;2023-05-10T05:55:33;13.10;99.90
13164;DHT22;6647;53.688;10.746;2023-05-10T05:57:00;13.10;99.90
13164;DHT22;6647;53.688;10.746;2023-05-10T05:58:22;13.20;99.90
13164;DHT22;6647;53.688;10.746;2023-05-10T05:59:43;13.20;99.90
13164;DHT22;6647;53.688;10.746;2023-05-10T06:01:04;13.20;99.90
13164;DHT22;6647;53.688;10.746;2023-05-10T06:02:25;13.20;99.90
13164;DHT22;6647;53.688;10.746;2023-05-10T06:03:46;13.30;99.90
13164;DHT22;6647;53.688;10.746;2023-05-10T06:05:07;13.30;99.90
13164;DHT22;6647;53.688;10.746;2023-05-10T06:06:28;13.30;99.90
13164;DHT22;6647;53.688;10.746;2023-05-10T06:07:49;13.40;99.90
13164;DHT22;6647;53.688;10.746;2023-05-10T06:09:10;13.40;99.90
13164;DHT22;6647;53.688;10.746;2023-05-10T06:10:31;13.40;99.90
13164;DHT22;6647;53.688;10.746;2023-05-10T06:11:52;13.40;99.90
13164;DHT22;6647;53.688;10.746;2023-05-10T06:13:13;13.50;99.90
13164;DHT22;6647;53.688;10.746;2023-05-10T06:14:34;13.50;99.90
13164;DHT22;6647;53.688;10.746;2023-05-10T06:15:55;13.50;99.90
13164;DHT22;6647;53.688;10.746;2023-05-10T06:17:16;13.50;99.90
13164;DHT22;6647;53.688;10.746;2023-05-10T06:18:36;13.60;99.90
13164;DHT22;6647;53.688;10.746;2023-05-10T06:19:57;13.60;99.90
13164;DHT22;6647;53.688;10.746;2023-05-10T06:21:18;13.70;99.90
13164;DHT22;6647;53.688;10.746;2023-05-10T06:22:39;13.70;99.90
13164;DHT22;6647;53.688;10.746;2023-05-10T06:24:00;13.70;99.90
13164;DHT22;6647;53.688;10.746;2023-05-10T06:25:21;13.80;99.90
13164;DHT22;6647;53.688;10.746;2023-05-10T06:26:42;13.90;99.90
13164;DHT22;6647;53.688;10.746;2023-05-10T06:28:03;13.90;99.90
13164;DHT22;6647;53.688;10.746;2023-05-10T06:29:23;13.90;99.90
13164;DHT22;6647;53.688;10.746;2023-05-10T06:30:45;14.00;99.90
13164;DHT22;6647;53.688;10.746;2023-05-10T06:32:05;14.00;99.90
13164;DHT22;6647;53.688;10.746;2023-05-10T06:33:26;14.00;99.90
13164;DHT22;6647;53.688;10.746;2023-05-10T06:34:48;14.00;99.90
13164;DHT22;6647;53.688;10.746;2023-05-10T06:36:09;14.10;99.90
13164;DHT22;6647;53.688;10.746;2023-05-10T06:37:29;14.10;99.90
13164;DHT22;6647;53.688;10.746;2023-05-10T06:38:50;14.20;99.90
13164;DHT22;6647;53.688;10.746;2023-05-10T06:40:11;14.20;99.90
13164;DHT22;6647;53.688;10.746;2023-05-10T06:41:32;14.20;99.90
13164;DHT22;6647;53.688;10.746;2023-05-10T06:42:53;14.20;99.90
13164;DHT22;6647;53.688;10.746;2023-05-10T06:44:14;14.30;99.90
13164;DHT22;6647;53.688;10.746;2023-05-10T06:45:35;14.30;99.90
13164;DHT22;6647;53.688;10.746;2023-05-10T06:46:56;14.40;99.90
13164;DHT22;6647;53.688;10.746;2023-05-10T06:48:17;14.40;99.90
13164;DHT22;6647;53.688;10.746;2023-05-10T06:49:38;14.40;99.90
13164;DHT22;6647;53.688;10.746;2023-05-10T06:50:59;14.40;99.90
13164;DHT22;6647;53.688;10.746;2023-05-10T06:52:19;14.50;99.90
13164;DHT22;6647;53.688;10.746;2023-05-10T06:53:40;14.50;99.90
13164;DHT22;6647;53.688;10.746;2023-05-10T06:55:02;14.50;99.90
13164;DHT22;6647;53.688;10.746;2023-05-10T06:56:24;14.60;99.90
13164;DHT22;6647;53.688;10.746;2023-05-10T06:57:44;14.60;99.90
13164;DHT22;6647;53.688;10.746;2023-05-10T06:59:05;14.60;99.90
13164;DHT22;6647;53.688;10.746;2023-05-10T07:00:27;14.60;99.90
13164;DHT22;6647;53.688;10.746;2023-05-10T07:01:48;14.70;99.90
13164;DHT22;6647;53.688;10.746;2023-05-10T07:03:09;14.70;99.90
13164;DHT22;6647;53.688;10.746;2023-05-10T07:04:30;14.70;99.90
13164;DHT22;6647;53.688;10.746;2023-05-10T07:05:51;14.70;99.90
13164;DHT22;6647;53.688;10.746;2023-05-10T07:07:13;14.80;99.90
13164;DHT22;6647;53.688;10.746;2023-05-10T07:08:34;14.80;99.90
13164;DHT22;6647;53.688;10.746;2023-05-10T07:09:55;14.80;99.90
13164;DHT22;6647;53.688;10.746;2023-05-10T07:11:17;14.90;99.90
13164;DHT22;6647;53.688;10.746;2023-05-10T07:12:38;14.90;99.90
13164;DHT22;6647;53.688;10.746;2023-05-10T07:13:58;14.90;99.90
13164;DHT22;6647;53.688;10.746;2023-05-10T07:15:20;15.00;99.90
13164;DHT22;6647;53.688;10.746;2023-05-10T07:16:41;15.10;99.90
13164;DHT22;6647;53.688;10.746;2023-05-10T07:18:02;15.10;99.90
13164;DHT22;6647;53.688;10.746;2023-05-10T07:19:23;15.10;99.90
13164;DHT22;6647;53.688;10.746;2023-05-10T07:20:44;15.20;99.90
13164;DHT22;6647;53.688;10.746;2023-05-10T07:22:05;15.20;99.90
13164;DHT22;6647;53.688;10.746;2023-05-10T07:23:26;15.20;99.90
13164;DHT22;6647;53.688;10.746;2023-05-10T07:24:47;15.30;99.90
13164;DHT22;6647;53.688;10.746;2023-05-10T07:26:08;15.30;99.90
13164;DHT22;6647;53.688;10.746;2023-05-10T07:27:30;15.30;99.90
13164;DHT22;6647;53.688;10.746;2023-05-10T07:28:51;15.30;99.90
13164;DHT22;6647;53.688;10.746;2023-05-10T07:30:12;15.40;99.90
13164;DHT22;6647;53.688;10.746;2023-05-10T07:31:33;15.40;99.90
13164;DHT22;6647;53.688;10.746;2023-05-10T07:32:54;15.40;99.90
13164;DHT22;6647;53.688;10.746;2023-05-10T07:34:15;15.50;99.90
13164;DHT22;6647;53.688;10.746;2023-05-10T07:35:36;15.50;99.90
13164;DHT22;6647;53.688;10.746;2023-05-10T07:36:58;15.50;99.90
13164;DHT22;6647;53.688;10.746;2023-05-10T07:38:19;15.50;99.90
13164;DHT22;6647;53.688;10.746;2023-05-10T07:39:40;15.50;99.90
13164;DHT22;6647;53.688;10.746;2023-05-10T07:41:00;15.50;99.90
13164;DHT22;6647;53.688;10.746;2023-05-10T07:42:21;15.50;99.90
13164;DHT22;6647;53.688;10.746;2023-05-10T07:43:42;15.50;99.90
13164;DHT22;6647;53.688;10.746;2023-05-10T07:45:03;15.50;99.90
13164;DHT22;6647;53.688;10.746;2023-05-10T07:46:24;15.50;99.90
13164;DHT22;6647;53.688;10.746;2023-05-10T07:47:45;15.50;99.90
13164;DHT22;6647;53.688;10.746;2023-05-10T07:49:06;15.50;99.90
13164;DHT22;6647;53.688;10.746;2023-05-10T07:50:27;15.50;99.90
13164;DHT22;6647;53.688;10.746;2023-05-10T07:51:48;15.50;99.90
13164;DHT22;6647;53.688;10.746;2023-05-10T07:53:09;15.50;99.90
13164;DHT22;6647;53.688;10.746;2023-05-10T07:54:30;15.60;99.90
13164;DHT22;6647;53.688;10.746;2023-05-10T07:55:53;15.60;99.90
13164;DHT22;6647;53.688;10.746;2023-05-10T07:57:15;15.60;99.90
13164;DHT22;6647;53.688;10.746;2023-05-10T07:58:38;15.60;99.90
13164;DHT22;6647;53.688;10.746;2023-05-10T07:59:59;15.60;99.90
13164;DHT22;6647;53.688;10.746;2023-05-10T08:01:20;15.70;99.90
13164;DHT22;6647;53.688;10.746;2023-05-10T08:02:41;15.70;99.90
13164;DHT22;6647;53.688;10.746;2023-05-10T08:04:02;15.80;99.90
13164;DHT22;6647;53.688;10.746;2023-05-10T08:05:23;15.80;99.90
13164;DHT22;6647;53.688;10.746;2023-05-10T08:06:43;15.90;99.90
13164;DHT22;6647;53.688;10.746;2023-05-10T08:08:04;15.90;99.90
13164;DHT22;6647;53.688;10.746;2023-05-10T08:09:25;16.00;99.90
13164;DHT22;6647;53.688;10.746;2023-05-10T08:10:46;16.00;99.90
13164;DHT22;6647;53.688;10.746;2023-05-10T08:12:07;16.00;99.90
13164;DHT22;6647;53.688;10.746;2023-05-10T08:13:28;16.10;99.90
13164;DHT22;6647;53.688;10.746;2023-05-10T08:14:49;16.10;99.90
13164;DHT22;6647;53.688;10.746;2023-05-10T08:16:10;16.20;99.90
13164;DHT22;6647;53.688;10.746;2023-05-10T08:17:31;16.30;99.90
13164;DHT22;6647;53.688;10.746;2023-05-10T08:18:52;16.30;99.90
13164;DHT22;6647;53.688;10.746;2023-05-10T08:20:12;16.40;99.90
13164;DHT22;6647;53.688;10.746;2023-05-10T08:21:37;16.40;99.90
13164;DHT22;6647;53.688;10.746;2023-05-10T08:22:58;16.40;99.90
13164;DHT22;6647;53.688;10.746;2023-05-10T08:24:19;16.50;99.90
13164;DHT22;6647;53.688;10.746;2023-05-10T08:25:40;16.60;99.90
13164;DHT22;6647;53.688;10.746;2023-05-10T08:27:01;16.70;99.90
13164;DHT22;6647;53.688;10.746;2023-05-10T08:28:22;16.70;99.90
13164;DHT22;6647;53.688;10.746;2023-05-10T08:29:42;16.70;99.90
13164;DHT22;6647;53.688;10.746;2023-05-10T08:31:04;16.70;99.90
13164;DHT22;6647;53.688;10.746;2023-05-10T08:32:26;16.70;99.90
13164;DHT22;6647;53.688;10.746;2023-05-10T08:33:46;16.70;99.90
13164;DHT22;6647;53.688;10.746;2023-05-10T08:35:07;16.80;99.90
13164;DHT22;6647;53.688;10.746;2023-05-10T08:36:28;16.80;99.90
13164;DHT22;6647;53.688;10.746;2023-05-10T08:37:50;16.80;99.90
13164;DHT22;6647;53.688;10.746;2023-05-10T08:39:11;16.80;99.90
13164;DHT22;6647;53.688;10.746;2023-05-10T08:40:32;16.90;99.90
13164;DHT22;6647;53.688;10.746;2023-05-10T08:41:54;16.90;99.90
13164;DHT22;6647;53.688;10.746;2023-05-10T08:43:16;16.90;99.90
13164;DHT22;6647;53.688;10.746;2023-05-10T08:44:37;16.90;99.90
13164;DHT22;6647;53.688;10.746;2023-05-10T08:46:01;17.00;99.90
13164;DHT22;6647;53.688;10.746;2023-05-10T08:47:23;17.00;99.90
13164;DHT22;6647;53.688;10.746;2023-05-10T08:48:46;17.10;99.90
13164;DHT22;6647;53.688;10.746;2023-05-10T08:50:08;17.10;99.90
13164;DHT22;6647;53.688;10.746;2023-05-10T08:51:33;17.20;99.90
13164;DHT22;6647;53.688;10.746;2023-05-10T08:52:59;17.20;99.90
13164;DHT22;6647;53.688;10.746;2023-05-10T08:54:21;17.20;99.90
13164;DHT22;6647;53.688;10.746;2023-05-10T08:55:42;17.30;99.90
13164;DHT22;6647;53.688;10.746;2023-05-10T08:57:03;17.30;99.90